<?xml version="1.0" encoding="UTF-8" standalone="no" ?>
<gpx xmlns="http://www.topografix.com/GPX/1/1" xmlns:xsi="http://www.w3.org/2001/XMLSchema-instance" xsi:schemaLocation="http://www.topografix.com/GPX/1/1 http://www.topografix.com/GPX/1/1/gpx.xsd" version="1.1" creator="VisuGPX - https://www.visugpx.com">
  <metadata>
    <name>LE FAOUËT (chapelle St Fiacre)</name>
    <desc><![CDATA[On part à droite de la chapelle Ste Barbe, cest une boucle pas de difficulté majeure sauf la montée sur la chapelle Ste Barbe, 100 m de dénivelé sur 600 m. certains endroits boueux avec la pluie.Trés belle chapelle comme Ste Barbe]]></desc>
  </metadata>
  <trk>
    <name><![CDATA[LE FAOUËT (chapelle St Fiacre)_1]]></name>
    <trkseg>
      <trkpt lat="48.04202" lon="-3.48008">
        <ele>158</ele>
        <time>2013-06-21T11:11:39Z</time>
      </trkpt>
      <trkpt lat="48.04182" lon="-3.48029">
        <ele>159</ele>
        <time>2013-06-21T11:12:09Z</time>
      </trkpt>
      <trkpt lat="48.0416" lon="-3.48057">
        <ele>159</ele>
        <time>2013-06-21T11:12:39Z</time>
      </trkpt>
      <trkpt lat="48.04138" lon="-3.48096">
        <ele>156</ele>
        <time>2013-06-21T11:13:09Z</time>
      </trkpt>
      <trkpt lat="48.04117" lon="-3.48133">
        <ele>156</ele>
        <time>2013-06-21T11:13:39Z</time>
      </trkpt>
      <trkpt lat="48.04095" lon="-3.48171">
        <ele>156</ele>
        <time>2013-06-21T11:14:09Z</time>
      </trkpt>
      <trkpt lat="48.04082" lon="-3.48206">
        <ele>156</ele>
        <time>2013-06-21T11:14:40Z</time>
      </trkpt>
      <trkpt lat="48.04071" lon="-3.48239">
        <ele>152</ele>
        <time>2013-06-21T11:15:10Z</time>
      </trkpt>
      <trkpt lat="48.04057" lon="-3.48274">
        <ele>148</ele>
        <time>2013-06-21T11:15:40Z</time>
      </trkpt>
      <trkpt lat="48.04047" lon="-3.48316">
        <ele>144</ele>
        <time>2013-06-21T11:16:10Z</time>
      </trkpt>
      <trkpt lat="48.04043" lon="-3.48358">
        <ele>139</ele>
        <time>2013-06-21T11:16:41Z</time>
      </trkpt>
      <trkpt lat="48.04048" lon="-3.48385">
        <ele>134</ele>
        <time>2013-06-21T11:17:11Z</time>
      </trkpt>
      <trkpt lat="48.04062" lon="-3.4841">
        <ele>129</ele>
        <time>2013-06-21T11:17:41Z</time>
      </trkpt>
      <trkpt lat="48.04076" lon="-3.48432">
        <ele>125</ele>
        <time>2013-06-21T11:18:11Z</time>
      </trkpt>
      <trkpt lat="48.04082" lon="-3.48447">
        <ele>121</ele>
        <time>2013-06-21T11:18:41Z</time>
      </trkpt>
      <trkpt lat="48.04085" lon="-3.48467">
        <ele>116</ele>
        <time>2013-06-21T11:19:11Z</time>
      </trkpt>
      <trkpt lat="48.04078" lon="-3.48484">
        <ele>112</ele>
        <time>2013-06-21T11:19:42Z</time>
      </trkpt>
      <trkpt lat="48.04064" lon="-3.48517">
        <ele>107</ele>
        <time>2013-06-21T11:20:12Z</time>
      </trkpt>
      <trkpt lat="48.04056" lon="-3.48553">
        <ele>102</ele>
        <time>2013-06-21T11:20:42Z</time>
      </trkpt>
      <trkpt lat="48.04042" lon="-3.48594">
        <ele>102</ele>
        <time>2013-06-21T11:21:12Z</time>
      </trkpt>
      <trkpt lat="48.04031" lon="-3.48632">
        <ele>98</ele>
        <time>2013-06-21T11:21:43Z</time>
      </trkpt>
      <trkpt lat="48.04021" lon="-3.48665">
        <ele>93</ele>
        <time>2013-06-21T11:22:13Z</time>
      </trkpt>
      <trkpt lat="48.04014" lon="-3.48691">
        <ele>89</ele>
        <time>2013-06-21T11:22:43Z</time>
      </trkpt>
      <trkpt lat="48.04008" lon="-3.48724">
        <ele>89</ele>
        <time>2013-06-21T11:23:13Z</time>
      </trkpt>
      <trkpt lat="48.03999" lon="-3.48743">
        <ele>81</ele>
        <time>2013-06-21T11:23:44Z</time>
      </trkpt>
      <trkpt lat="48.03957" lon="-3.48772">
        <ele>81</ele>
        <time>2013-06-21T11:24:14Z</time>
      </trkpt>
      <trkpt lat="48.03943" lon="-3.48762">
        <ele>81</ele>
        <time>2013-06-21T11:24:44Z</time>
      </trkpt>
      <trkpt lat="48.03914" lon="-3.48751">
        <ele>81</ele>
        <time>2013-06-21T11:25:14Z</time>
      </trkpt>
      <trkpt lat="48.03885" lon="-3.48748">
        <ele>81</ele>
        <time>2013-06-21T11:25:44Z</time>
      </trkpt>
      <trkpt lat="48.03859" lon="-3.48769">
        <ele>85</ele>
        <time>2013-06-21T11:26:15Z</time>
      </trkpt>
      <trkpt lat="48.0383" lon="-3.48785">
        <ele>85</ele>
        <time>2013-06-21T11:26:45Z</time>
      </trkpt>
      <trkpt lat="48.03809" lon="-3.48797">
        <ele>90</ele>
        <time>2013-06-21T11:27:15Z</time>
      </trkpt>
      <trkpt lat="48.03778" lon="-3.48807">
        <ele>94</ele>
        <time>2013-06-21T11:27:46Z</time>
      </trkpt>
      <trkpt lat="48.03753" lon="-3.48818">
        <ele>94</ele>
        <time>2013-06-21T11:28:16Z</time>
      </trkpt>
      <trkpt lat="48.03725" lon="-3.48839">
        <ele>98</ele>
        <time>2013-06-21T11:28:46Z</time>
      </trkpt>
      <trkpt lat="48.03698" lon="-3.48868">
        <ele>103</ele>
        <time>2013-06-21T11:29:16Z</time>
      </trkpt>
      <trkpt lat="48.03669" lon="-3.48885">
        <ele>103</ele>
        <time>2013-06-21T11:29:47Z</time>
      </trkpt>
      <trkpt lat="48.03636" lon="-3.48908">
        <ele>103</ele>
        <time>2013-06-21T11:30:17Z</time>
      </trkpt>
      <trkpt lat="48.03603" lon="-3.48917">
        <ele>103</ele>
        <time>2013-06-21T11:30:48Z</time>
      </trkpt>
      <trkpt lat="48.03565" lon="-3.48927">
        <ele>104</ele>
        <time>2013-06-21T11:31:18Z</time>
      </trkpt>
      <trkpt lat="48.03535" lon="-3.48947">
        <ele>108</ele>
        <time>2013-06-21T11:31:48Z</time>
      </trkpt>
      <trkpt lat="48.03506" lon="-3.48947">
        <ele>112</ele>
        <time>2013-06-21T11:32:18Z</time>
      </trkpt>
      <trkpt lat="48.03476" lon="-3.48954">
        <ele>112</ele>
        <time>2013-06-21T11:32:48Z</time>
      </trkpt>
      <trkpt lat="48.03449" lon="-3.4896">
        <ele>116</ele>
        <time>2013-06-21T11:33:19Z</time>
      </trkpt>
      <trkpt lat="48.03421" lon="-3.48966">
        <ele>120</ele>
        <time>2013-06-21T11:33:49Z</time>
      </trkpt>
      <trkpt lat="48.0339" lon="-3.48966">
        <ele>120</ele>
        <time>2013-06-21T11:34:19Z</time>
      </trkpt>
      <trkpt lat="48.03359" lon="-3.48957">
        <ele>124</ele>
        <time>2013-06-21T11:34:50Z</time>
      </trkpt>
      <trkpt lat="48.03337" lon="-3.48949">
        <ele>124</ele>
        <time>2013-06-21T11:35:20Z</time>
      </trkpt>
      <trkpt lat="48.03327" lon="-3.48945">
        <ele>124</ele>
        <time>2013-06-21T11:35:50Z</time>
      </trkpt>
      <trkpt lat="48.03297" lon="-3.48944">
        <ele>124</ele>
        <time>2013-06-21T11:36:20Z</time>
      </trkpt>
      <trkpt lat="48.0328" lon="-3.48936">
        <ele>124</ele>
        <time>2013-06-21T11:36:51Z</time>
      </trkpt>
      <trkpt lat="48.0326" lon="-3.4893">
        <ele>120</ele>
        <time>2013-06-21T11:37:21Z</time>
      </trkpt>
      <trkpt lat="48.03232" lon="-3.48931">
        <ele>120</ele>
        <time>2013-06-21T11:37:52Z</time>
      </trkpt>
      <trkpt lat="48.03219" lon="-3.48941">
        <ele>120</ele>
        <time>2013-06-21T11:38:22Z</time>
      </trkpt>
      <trkpt lat="48.03204" lon="-3.48973">
        <ele>120</ele>
        <time>2013-06-21T11:38:52Z</time>
      </trkpt>
      <trkpt lat="48.03199" lon="-3.4902">
        <ele>120</ele>
        <time>2013-06-21T11:39:22Z</time>
      </trkpt>
      <trkpt lat="48.03197" lon="-3.49067">
        <ele>120</ele>
        <time>2013-06-21T11:39:53Z</time>
      </trkpt>
      <trkpt lat="48.03188" lon="-3.49117">
        <ele>116</ele>
        <time>2013-06-21T11:40:23Z</time>
      </trkpt>
      <trkpt lat="48.0318" lon="-3.49148">
        <ele>116</ele>
        <time>2013-06-21T11:40:53Z</time>
      </trkpt>
      <trkpt lat="48.03175" lon="-3.49188">
        <ele>116</ele>
        <time>2013-06-21T11:41:23Z</time>
      </trkpt>
      <trkpt lat="48.03185" lon="-3.49248">
        <ele>116</ele>
        <time>2013-06-21T11:41:54Z</time>
      </trkpt>
      <trkpt lat="48.03163" lon="-3.49285">
        <ele>116</ele>
        <time>2013-06-21T11:42:24Z</time>
      </trkpt>
      <trkpt lat="48.03127" lon="-3.49273">
        <ele>112</ele>
        <time>2013-06-21T11:42:55Z</time>
      </trkpt>
      <trkpt lat="48.03098" lon="-3.49293">
        <ele>108</ele>
        <time>2013-06-21T11:43:25Z</time>
      </trkpt>
      <trkpt lat="48.03067" lon="-3.4933">
        <ele>108</ele>
        <time>2013-06-21T11:43:55Z</time>
      </trkpt>
      <trkpt lat="48.03038" lon="-3.49343">
        <ele>104</ele>
        <time>2013-06-21T11:44:25Z</time>
      </trkpt>
      <trkpt lat="48.03003" lon="-3.49334">
        <ele>100</ele>
        <time>2013-06-21T11:44:55Z</time>
      </trkpt>
      <trkpt lat="48.02971" lon="-3.49323">
        <ele>96</ele>
        <time>2013-06-21T11:45:26Z</time>
      </trkpt>
      <trkpt lat="48.02945" lon="-3.49329">
        <ele>96</ele>
        <time>2013-06-21T11:45:56Z</time>
      </trkpt>
      <trkpt lat="48.02921" lon="-3.49369">
        <ele>96</ele>
        <time>2013-06-21T11:46:27Z</time>
      </trkpt>
      <trkpt lat="48.029" lon="-3.49416">
        <ele>96</ele>
        <time>2013-06-21T11:46:57Z</time>
      </trkpt>
      <trkpt lat="48.02877" lon="-3.49442">
        <ele>96</ele>
        <time>2013-06-21T11:47:27Z</time>
      </trkpt>
      <trkpt lat="48.02843" lon="-3.49462">
        <ele>94</ele>
        <time>2013-06-21T11:47:57Z</time>
      </trkpt>
      <trkpt lat="48.02809" lon="-3.49484">
        <ele>94</ele>
        <time>2013-06-21T11:48:27Z</time>
      </trkpt>
      <trkpt lat="48.0278" lon="-3.4951">
        <ele>90</ele>
        <time>2013-06-21T11:48:58Z</time>
      </trkpt>
      <trkpt lat="48.0275" lon="-3.49539">
        <ele>86</ele>
        <time>2013-06-21T11:49:28Z</time>
      </trkpt>
      <trkpt lat="48.02727" lon="-3.49573">
        <ele>86</ele>
        <time>2013-06-21T11:49:58Z</time>
      </trkpt>
      <trkpt lat="48.02708" lon="-3.49618">
        <ele>86</ele>
        <time>2013-06-21T11:50:28Z</time>
      </trkpt>
      <trkpt lat="48.0269" lon="-3.49667">
        <ele>91</ele>
        <time>2013-06-21T11:50:59Z</time>
      </trkpt>
      <trkpt lat="48.0268" lon="-3.49693">
        <ele>91</ele>
        <time>2013-06-21T11:51:29Z</time>
      </trkpt>
      <trkpt lat="48.02661" lon="-3.49687">
        <ele>91</ele>
        <time>2013-06-21T11:51:59Z</time>
      </trkpt>
      <trkpt lat="48.02628" lon="-3.49684">
        <ele>87</ele>
        <time>2013-06-21T11:52:29Z</time>
      </trkpt>
      <trkpt lat="48.02591" lon="-3.49679">
        <ele>87</ele>
        <time>2013-06-21T11:52:59Z</time>
      </trkpt>
      <trkpt lat="48.0255" lon="-3.49677">
        <ele>87</ele>
        <time>2013-06-21T11:53:29Z</time>
      </trkpt>
      <trkpt lat="48.02515" lon="-3.49669">
        <ele>87</ele>
        <time>2013-06-21T11:54:00Z</time>
      </trkpt>
      <trkpt lat="48.02484" lon="-3.49646">
        <ele>87</ele>
        <time>2013-06-21T11:54:30Z</time>
      </trkpt>
      <trkpt lat="48.02452" lon="-3.49616">
        <ele>85</ele>
        <time>2013-06-21T11:55:00Z</time>
      </trkpt>
      <trkpt lat="48.0242" lon="-3.49592">
        <ele>85</ele>
        <time>2013-06-21T11:55:30Z</time>
      </trkpt>
      <trkpt lat="48.02387" lon="-3.49564">
        <ele>85</ele>
        <time>2013-06-21T11:56:01Z</time>
      </trkpt>
      <trkpt lat="48.02355" lon="-3.49535">
        <ele>85</ele>
        <time>2013-06-21T11:56:31Z</time>
      </trkpt>
      <trkpt lat="48.02323" lon="-3.49515">
        <ele>85</ele>
        <time>2013-06-21T11:57:01Z</time>
      </trkpt>
      <trkpt lat="48.02293" lon="-3.49489">
        <ele>85</ele>
        <time>2013-06-21T11:57:31Z</time>
      </trkpt>
      <trkpt lat="48.02262" lon="-3.49468">
        <ele>81</ele>
        <time>2013-06-21T11:58:01Z</time>
      </trkpt>
      <trkpt lat="48.02231" lon="-3.49446">
        <ele>81</ele>
        <time>2013-06-21T11:58:32Z</time>
      </trkpt>
      <trkpt lat="48.02228" lon="-3.49423">
        <ele>81</ele>
        <time>2013-06-21T11:59:02Z</time>
      </trkpt>
      <trkpt lat="48.02221" lon="-3.49398">
        <ele>77</ele>
        <time>2013-06-21T11:59:32Z</time>
      </trkpt>
      <trkpt lat="48.02194" lon="-3.49388">
        <ele>77</ele>
        <time>2013-06-21T12:00:02Z</time>
      </trkpt>
      <trkpt lat="48.02156" lon="-3.49387">
        <ele>77</ele>
        <time>2013-06-21T12:00:33Z</time>
      </trkpt>
      <trkpt lat="48.02121" lon="-3.49376">
        <ele>77</ele>
        <time>2013-06-21T12:01:03Z</time>
      </trkpt>
      <trkpt lat="48.02089" lon="-3.49364">
        <ele>77</ele>
        <time>2013-06-21T12:01:33Z</time>
      </trkpt>
      <trkpt lat="48.02057" lon="-3.4934">
        <ele>77</ele>
        <time>2013-06-21T12:02:03Z</time>
      </trkpt>
      <trkpt lat="48.0203" lon="-3.49312">
        <ele>76</ele>
        <time>2013-06-21T12:02:33Z</time>
      </trkpt>
      <trkpt lat="48.02011" lon="-3.49283">
        <ele>76</ele>
        <time>2013-06-21T12:03:04Z</time>
      </trkpt>
      <trkpt lat="48.01992" lon="-3.4924">
        <ele>76</ele>
        <time>2013-06-21T12:03:34Z</time>
      </trkpt>
      <trkpt lat="48.01969" lon="-3.49197">
        <ele>76</ele>
        <time>2013-06-21T12:04:04Z</time>
      </trkpt>
      <trkpt lat="48.01949" lon="-3.49152">
        <ele>75</ele>
        <time>2013-06-21T12:04:35Z</time>
      </trkpt>
      <trkpt lat="48.01934" lon="-3.49111">
        <ele>75</ele>
        <time>2013-06-21T12:05:05Z</time>
      </trkpt>
      <trkpt lat="48.01914" lon="-3.4907">
        <ele>75</ele>
        <time>2013-06-21T12:05:35Z</time>
      </trkpt>
      <trkpt lat="48.01897" lon="-3.49027">
        <ele>71</ele>
        <time>2013-06-21T12:06:05Z</time>
      </trkpt>
      <trkpt lat="48.01881" lon="-3.48972">
        <ele>71</ele>
        <time>2013-06-21T12:06:35Z</time>
      </trkpt>
      <trkpt lat="48.01878" lon="-3.48917">
        <ele>71</ele>
        <time>2013-06-21T12:07:05Z</time>
      </trkpt>
      <trkpt lat="48.01879" lon="-3.48857">
        <ele>71</ele>
        <time>2013-06-21T12:07:36Z</time>
      </trkpt>
      <trkpt lat="48.01886" lon="-3.48815">
        <ele>67</ele>
        <time>2013-06-21T12:08:06Z</time>
      </trkpt>
      <trkpt lat="48.01897" lon="-3.48781">
        <ele>67</ele>
        <time>2013-06-21T12:08:36Z</time>
      </trkpt>
      <trkpt lat="48.01917" lon="-3.48737">
        <ele>67</ele>
        <time>2013-06-21T12:09:06Z</time>
      </trkpt>
      <trkpt lat="48.01918" lon="-3.4873">
        <ele>67</ele>
        <time>2013-06-21T12:09:36Z</time>
      </trkpt>
      <trkpt lat="48.01913" lon="-3.4873">
        <ele>67</ele>
        <time>2013-06-21T12:10:06Z</time>
      </trkpt>
      <trkpt lat="48.01903" lon="-3.48726">
        <ele>69</ele>
        <time>2013-06-21T12:10:37Z</time>
      </trkpt>
      <trkpt lat="48.01872" lon="-3.48712">
        <ele>69</ele>
        <time>2013-06-21T12:11:07Z</time>
      </trkpt>
      <trkpt lat="48.01843" lon="-3.48707">
        <ele>73</ele>
        <time>2013-06-21T12:11:37Z</time>
      </trkpt>
      <trkpt lat="48.01825" lon="-3.48704">
        <ele>77</ele>
        <time>2013-06-21T12:12:07Z</time>
      </trkpt>
      <trkpt lat="48.018" lon="-3.48705">
        <ele>81</ele>
        <time>2013-06-21T12:12:37Z</time>
      </trkpt>
      <trkpt lat="48.01773" lon="-3.48704">
        <ele>81</ele>
        <time>2013-06-21T12:13:08Z</time>
      </trkpt>
      <trkpt lat="48.01748" lon="-3.48702">
        <ele>86</ele>
        <time>2013-06-21T12:13:38Z</time>
      </trkpt>
      <trkpt lat="48.01717" lon="-3.48697">
        <ele>86</ele>
        <time>2013-06-21T12:14:08Z</time>
      </trkpt>
      <trkpt lat="48.0168" lon="-3.48685">
        <ele>91</ele>
        <time>2013-06-21T12:14:38Z</time>
      </trkpt>
      <trkpt lat="48.01652" lon="-3.48667">
        <ele>91</ele>
        <time>2013-06-21T12:15:09Z</time>
      </trkpt>
      <trkpt lat="48.01641" lon="-3.48663">
        <ele>91</ele>
        <time>2013-06-21T12:15:39Z</time>
      </trkpt>
      <trkpt lat="48.01639" lon="-3.48659">
        <ele>91</ele>
        <time>2013-06-21T12:16:09Z</time>
      </trkpt>
      <trkpt lat="48.01624" lon="-3.48656">
        <ele>90</ele>
        <time>2013-06-21T12:16:39Z</time>
      </trkpt>
      <trkpt lat="48.01604" lon="-3.48656">
        <ele>90</ele>
        <time>2013-06-21T12:17:09Z</time>
      </trkpt>
      <trkpt lat="48.0158" lon="-3.48662">
        <ele>90</ele>
        <time>2013-06-21T12:17:39Z</time>
      </trkpt>
      <trkpt lat="48.01552" lon="-3.48669">
        <ele>90</ele>
        <time>2013-06-21T12:18:10Z</time>
      </trkpt>
      <trkpt lat="48.01514" lon="-3.48679">
        <ele>86</ele>
        <time>2013-06-21T12:18:40Z</time>
      </trkpt>
      <trkpt lat="48.01485" lon="-3.48703">
        <ele>86</ele>
        <time>2013-06-21T12:19:10Z</time>
      </trkpt>
      <trkpt lat="48.01458" lon="-3.48687">
        <ele>82</ele>
        <time>2013-06-21T12:19:40Z</time>
      </trkpt>
      <trkpt lat="48.01433" lon="-3.48681">
        <ele>82</ele>
        <time>2013-06-21T12:20:11Z</time>
      </trkpt>
      <trkpt lat="48.01412" lon="-3.48699">
        <ele>78</ele>
        <time>2013-06-21T12:20:41Z</time>
      </trkpt>
      <trkpt lat="48.01402" lon="-3.48724">
        <ele>78</ele>
        <time>2013-06-21T12:21:11Z</time>
      </trkpt>
      <trkpt lat="48.01404" lon="-3.48727">
        <ele>78</ele>
        <time>2013-06-21T12:21:42Z</time>
      </trkpt>
      <trkpt lat="48.01404" lon="-3.48723">
        <ele>77</ele>
        <time>2013-06-21T12:22:11Z</time>
      </trkpt>
      <trkpt lat="48.01405" lon="-3.48722">
        <ele>77</ele>
        <time>2013-06-21T12:22:42Z</time>
      </trkpt>
      <trkpt lat="48.01398" lon="-3.48721">
        <ele>77</ele>
        <time>2013-06-21T12:23:12Z</time>
      </trkpt>
      <trkpt lat="48.01396" lon="-3.48728">
        <ele>77</ele>
        <time>2013-06-21T12:23:42Z</time>
      </trkpt>
      <trkpt lat="48.01408" lon="-3.48725">
        <ele>77</ele>
        <time>2013-06-21T12:24:12Z</time>
      </trkpt>
      <trkpt lat="48.01408" lon="-3.48726">
        <ele>77</ele>
        <time>2013-06-21T12:24:42Z</time>
      </trkpt>
      <trkpt lat="48.01402" lon="-3.48729">
        <ele>77</ele>
        <time>2013-06-21T12:25:13Z</time>
      </trkpt>
      <trkpt lat="48.01403" lon="-3.4873">
        <ele>77</ele>
        <time>2013-06-21T12:25:43Z</time>
      </trkpt>
      <trkpt lat="48.01406" lon="-3.48732">
        <ele>78</ele>
        <time>2013-06-21T12:26:13Z</time>
      </trkpt>
      <trkpt lat="48.01405" lon="-3.48731">
        <ele>78</ele>
        <time>2013-06-21T12:26:43Z</time>
      </trkpt>
      <trkpt lat="48.01406" lon="-3.48726">
        <ele>76</ele>
        <time>2013-06-21T12:27:13Z</time>
      </trkpt>
      <trkpt lat="48.0141" lon="-3.48725">
        <ele>76</ele>
        <time>2013-06-21T12:27:43Z</time>
      </trkpt>
      <trkpt lat="48.01411" lon="-3.48724">
        <ele>76</ele>
        <time>2013-06-21T12:28:14Z</time>
      </trkpt>
      <trkpt lat="48.0141" lon="-3.48721">
        <ele>77</ele>
        <time>2013-06-21T12:28:44Z</time>
      </trkpt>
      <trkpt lat="48.01408" lon="-3.48717">
        <ele>77</ele>
        <time>2013-06-21T12:29:14Z</time>
      </trkpt>
      <trkpt lat="48.0141" lon="-3.48723">
        <ele>77</ele>
        <time>2013-06-21T12:29:44Z</time>
      </trkpt>
      <trkpt lat="48.01414" lon="-3.48728">
        <ele>77</ele>
        <time>2013-06-21T12:30:14Z</time>
      </trkpt>
      <trkpt lat="48.0141" lon="-3.48727">
        <ele>77</ele>
        <time>2013-06-21T12:30:45Z</time>
      </trkpt>
      <trkpt lat="48.01406" lon="-3.48734">
        <ele>77</ele>
        <time>2013-06-21T12:31:15Z</time>
      </trkpt>
      <trkpt lat="48.01407" lon="-3.48722">
        <ele>77</ele>
        <time>2013-06-21T12:31:45Z</time>
      </trkpt>
      <trkpt lat="48.01409" lon="-3.48724">
        <ele>77</ele>
        <time>2013-06-21T12:32:15Z</time>
      </trkpt>
      <trkpt lat="48.01412" lon="-3.48728">
        <ele>77</ele>
        <time>2013-06-21T12:32:45Z</time>
      </trkpt>
      <trkpt lat="48.01403" lon="-3.4873">
        <ele>77</ele>
        <time>2013-06-21T12:33:16Z</time>
      </trkpt>
      <trkpt lat="48.01404" lon="-3.48728">
        <ele>78</ele>
        <time>2013-06-21T12:33:46Z</time>
      </trkpt>
      <trkpt lat="48.01405" lon="-3.48726">
        <ele>78</ele>
        <time>2013-06-21T12:34:16Z</time>
      </trkpt>
      <trkpt lat="48.01405" lon="-3.48728">
        <ele>78</ele>
        <time>2013-06-21T12:34:46Z</time>
      </trkpt>
      <trkpt lat="48.01399" lon="-3.48727">
        <ele>78</ele>
        <time>2013-06-21T12:35:16Z</time>
      </trkpt>
      <trkpt lat="48.01407" lon="-3.48723">
        <ele>78</ele>
        <time>2013-06-21T12:35:47Z</time>
      </trkpt>
      <trkpt lat="48.01405" lon="-3.48738">
        <ele>77</ele>
        <time>2013-06-21T12:36:17Z</time>
      </trkpt>
      <trkpt lat="48.014" lon="-3.48738">
        <ele>77</ele>
        <time>2013-06-21T12:36:47Z</time>
      </trkpt>
      <trkpt lat="48.01402" lon="-3.48742">
        <ele>77</ele>
        <time>2013-06-21T12:37:17Z</time>
      </trkpt>
      <trkpt lat="48.01402" lon="-3.48742">
        <ele>77</ele>
        <time>2013-06-21T12:37:47Z</time>
      </trkpt>
      <trkpt lat="48.01403" lon="-3.48742">
        <ele>77</ele>
        <time>2013-06-21T12:38:17Z</time>
      </trkpt>
      <trkpt lat="48.01406" lon="-3.48732">
        <ele>77</ele>
        <time>2013-06-21T12:38:48Z</time>
      </trkpt>
      <trkpt lat="48.01426" lon="-3.48697">
        <ele>77</ele>
        <time>2013-06-21T12:39:18Z</time>
      </trkpt>
      <trkpt lat="48.01451" lon="-3.48686">
        <ele>77</ele>
        <time>2013-06-21T12:39:48Z</time>
      </trkpt>
      <trkpt lat="48.01481" lon="-3.48705">
        <ele>82</ele>
        <time>2013-06-21T12:40:18Z</time>
      </trkpt>
      <trkpt lat="48.01498" lon="-3.48715">
        <ele>82</ele>
        <time>2013-06-21T12:40:49Z</time>
      </trkpt>
      <trkpt lat="48.01517" lon="-3.48688">
        <ele>82</ele>
        <time>2013-06-21T12:41:19Z</time>
      </trkpt>
      <trkpt lat="48.01539" lon="-3.48681">
        <ele>86</ele>
        <time>2013-06-21T12:41:49Z</time>
      </trkpt>
      <trkpt lat="48.01559" lon="-3.48678">
        <ele>86</ele>
        <time>2013-06-21T12:42:19Z</time>
      </trkpt>
      <trkpt lat="48.01585" lon="-3.48673">
        <ele>86</ele>
        <time>2013-06-21T12:42:49Z</time>
      </trkpt>
      <trkpt lat="48.01616" lon="-3.48668">
        <ele>90</ele>
        <time>2013-06-21T12:43:20Z</time>
      </trkpt>
      <trkpt lat="48.01632" lon="-3.48667">
        <ele>90</ele>
        <time>2013-06-21T12:43:50Z</time>
      </trkpt>
      <trkpt lat="48.01645" lon="-3.48637">
        <ele>90</ele>
        <time>2013-06-21T12:44:20Z</time>
      </trkpt>
      <trkpt lat="48.01657" lon="-3.48606">
        <ele>86</ele>
        <time>2013-06-21T12:44:50Z</time>
      </trkpt>
      <trkpt lat="48.0167" lon="-3.48567">
        <ele>86</ele>
        <time>2013-06-21T12:45:21Z</time>
      </trkpt>
      <trkpt lat="48.01689" lon="-3.48536">
        <ele>80</ele>
        <time>2013-06-21T12:45:51Z</time>
      </trkpt>
      <trkpt lat="48.01714" lon="-3.48499">
        <ele>80</ele>
        <time>2013-06-21T12:46:21Z</time>
      </trkpt>
      <trkpt lat="48.01744" lon="-3.48462">
        <ele>76</ele>
        <time>2013-06-21T12:46:51Z</time>
      </trkpt>
      <trkpt lat="48.01761" lon="-3.48431">
        <ele>72</ele>
        <time>2013-06-21T12:47:21Z</time>
      </trkpt>
      <trkpt lat="48.01775" lon="-3.48389">
        <ele>67</ele>
        <time>2013-06-21T12:47:51Z</time>
      </trkpt>
      <trkpt lat="48.0179" lon="-3.48351">
        <ele>67</ele>
        <time>2013-06-21T12:48:22Z</time>
      </trkpt>
      <trkpt lat="48.01791" lon="-3.48344">
        <ele>67</ele>
        <time>2013-06-21T12:48:52Z</time>
      </trkpt>
      <trkpt lat="48.01794" lon="-3.4834">
        <ele>67</ele>
        <time>2013-06-21T12:49:22Z</time>
      </trkpt>
      <trkpt lat="48.01803" lon="-3.48341">
        <ele>67</ele>
        <time>2013-06-21T12:49:52Z</time>
      </trkpt>
      <trkpt lat="48.01807" lon="-3.48343">
        <ele>63</ele>
        <time>2013-06-21T12:50:23Z</time>
      </trkpt>
      <trkpt lat="48.01811" lon="-3.48335">
        <ele>63</ele>
        <time>2013-06-21T12:50:53Z</time>
      </trkpt>
      <trkpt lat="48.01814" lon="-3.48334">
        <ele>63</ele>
        <time>2013-06-21T12:51:23Z</time>
      </trkpt>
      <trkpt lat="48.01819" lon="-3.48337">
        <ele>63</ele>
        <time>2013-06-21T12:51:53Z</time>
      </trkpt>
      <trkpt lat="48.01825" lon="-3.48346">
        <ele>64</ele>
        <time>2013-06-21T12:52:24Z</time>
      </trkpt>
      <trkpt lat="48.01809" lon="-3.4832">
        <ele>64</ele>
        <time>2013-06-21T12:52:54Z</time>
      </trkpt>
      <trkpt lat="48.01801" lon="-3.48276">
        <ele>64</ele>
        <time>2013-06-21T12:53:24Z</time>
      </trkpt>
      <trkpt lat="48.01804" lon="-3.48238">
        <ele>61</ele>
        <time>2013-06-21T12:53:54Z</time>
      </trkpt>
      <trkpt lat="48.01809" lon="-3.48198">
        <ele>61</ele>
        <time>2013-06-21T12:54:25Z</time>
      </trkpt>
      <trkpt lat="48.01826" lon="-3.48153">
        <ele>61</ele>
        <time>2013-06-21T12:54:55Z</time>
      </trkpt>
      <trkpt lat="48.01822" lon="-3.48104">
        <ele>61</ele>
        <time>2013-06-21T12:55:26Z</time>
      </trkpt>
      <trkpt lat="48.01819" lon="-3.48065">
        <ele>61</ele>
        <time>2013-06-21T12:55:56Z</time>
      </trkpt>
      <trkpt lat="48.01837" lon="-3.48035">
        <ele>61</ele>
        <time>2013-06-21T12:56:26Z</time>
      </trkpt>
      <trkpt lat="48.01854" lon="-3.48007">
        <ele>61</ele>
        <time>2013-06-21T12:56:57Z</time>
      </trkpt>
      <trkpt lat="48.01858" lon="-3.47952">
        <ele>61</ele>
        <time>2013-06-21T12:57:27Z</time>
      </trkpt>
      <trkpt lat="48.01863" lon="-3.47903">
        <ele>61</ele>
        <time>2013-06-21T12:57:57Z</time>
      </trkpt>
      <trkpt lat="48.01861" lon="-3.47854">
        <ele>61</ele>
        <time>2013-06-21T12:58:27Z</time>
      </trkpt>
      <trkpt lat="48.01865" lon="-3.47801">
        <ele>61</ele>
        <time>2013-06-21T12:58:58Z</time>
      </trkpt>
      <trkpt lat="48.01871" lon="-3.47754">
        <ele>57</ele>
        <time>2013-06-21T12:59:28Z</time>
      </trkpt>
      <trkpt lat="48.01876" lon="-3.47714">
        <ele>57</ele>
        <time>2013-06-21T12:59:59Z</time>
      </trkpt>
      <trkpt lat="48.01888" lon="-3.47671">
        <ele>57</ele>
        <time>2013-06-21T13:00:29Z</time>
      </trkpt>
      <trkpt lat="48.01883" lon="-3.47628">
        <ele>54</ele>
        <time>2013-06-21T13:01:00Z</time>
      </trkpt>
      <trkpt lat="48.01891" lon="-3.47602">
        <ele>54</ele>
        <time>2013-06-21T13:01:30Z</time>
      </trkpt>
      <trkpt lat="48.01895" lon="-3.47601">
        <ele>54</ele>
        <time>2013-06-21T13:02:00Z</time>
      </trkpt>
      <trkpt lat="48.01889" lon="-3.47596">
        <ele>54</ele>
        <time>2013-06-21T13:02:30Z</time>
      </trkpt>
      <trkpt lat="48.01898" lon="-3.47589">
        <ele>53</ele>
        <time>2013-06-21T13:03:00Z</time>
      </trkpt>
      <trkpt lat="48.01901" lon="-3.47589">
        <ele>53</ele>
        <time>2013-06-21T13:03:30Z</time>
      </trkpt>
      <trkpt lat="48.01901" lon="-3.47597">
        <ele>53</ele>
        <time>2013-06-21T13:04:00Z</time>
      </trkpt>
      <trkpt lat="48.01903" lon="-3.47591">
        <ele>53</ele>
        <time>2013-06-21T13:04:31Z</time>
      </trkpt>
      <trkpt lat="48.01896" lon="-3.47592">
        <ele>54</ele>
        <time>2013-06-21T13:05:01Z</time>
      </trkpt>
      <trkpt lat="48.01889" lon="-3.47597">
        <ele>54</ele>
        <time>2013-06-21T13:05:31Z</time>
      </trkpt>
      <trkpt lat="48.01892" lon="-3.47599">
        <ele>54</ele>
        <time>2013-06-21T13:06:01Z</time>
      </trkpt>
      <trkpt lat="48.019" lon="-3.47588">
        <ele>54</ele>
        <time>2013-06-21T13:06:32Z</time>
      </trkpt>
      <trkpt lat="48.01907" lon="-3.47586">
        <ele>54</ele>
        <time>2013-06-21T13:07:02Z</time>
      </trkpt>
      <trkpt lat="48.01926" lon="-3.47559">
        <ele>50</ele>
        <time>2013-06-21T13:07:32Z</time>
      </trkpt>
      <trkpt lat="48.01946" lon="-3.47555">
        <ele>50</ele>
        <time>2013-06-21T13:08:02Z</time>
      </trkpt>
      <trkpt lat="48.01972" lon="-3.47586">
        <ele>50</ele>
        <time>2013-06-21T13:08:33Z</time>
      </trkpt>
      <trkpt lat="48.01996" lon="-3.47629">
        <ele>50</ele>
        <time>2013-06-21T13:09:04Z</time>
      </trkpt>
      <trkpt lat="48.0202" lon="-3.47673">
        <ele>46</ele>
        <time>2013-06-21T13:09:34Z</time>
      </trkpt>
      <trkpt lat="48.0205" lon="-3.4769">
        <ele>46</ele>
        <time>2013-06-21T13:10:05Z</time>
      </trkpt>
      <trkpt lat="48.02085" lon="-3.47695">
        <ele>46</ele>
        <time>2013-06-21T13:10:35Z</time>
      </trkpt>
      <trkpt lat="48.02118" lon="-3.47693">
        <ele>46</ele>
        <time>2013-06-21T13:11:05Z</time>
      </trkpt>
      <trkpt lat="48.02144" lon="-3.47692">
        <ele>46</ele>
        <time>2013-06-21T13:11:36Z</time>
      </trkpt>
      <trkpt lat="48.02177" lon="-3.47712">
        <ele>46</ele>
        <time>2013-06-21T13:12:07Z</time>
      </trkpt>
      <trkpt lat="48.02201" lon="-3.47729">
        <ele>42</ele>
        <time>2013-06-21T13:12:37Z</time>
      </trkpt>
      <trkpt lat="48.02228" lon="-3.4774">
        <ele>42</ele>
        <time>2013-06-21T13:13:07Z</time>
      </trkpt>
      <trkpt lat="48.02262" lon="-3.4776">
        <ele>42</ele>
        <time>2013-06-21T13:13:37Z</time>
      </trkpt>
      <trkpt lat="48.02298" lon="-3.47787">
        <ele>47</ele>
        <time>2013-06-21T13:14:08Z</time>
      </trkpt>
      <trkpt lat="48.02323" lon="-3.47815">
        <ele>47</ele>
        <time>2013-06-21T13:14:38Z</time>
      </trkpt>
      <trkpt lat="48.02348" lon="-3.4784">
        <ele>47</ele>
        <time>2013-06-21T13:15:08Z</time>
      </trkpt>
      <trkpt lat="48.02377" lon="-3.47875">
        <ele>47</ele>
        <time>2013-06-21T13:15:39Z</time>
      </trkpt>
      <trkpt lat="48.0241" lon="-3.47905">
        <ele>51</ele>
        <time>2013-06-21T13:16:09Z</time>
      </trkpt>
      <trkpt lat="48.02436" lon="-3.47928">
        <ele>51</ele>
        <time>2013-06-21T13:16:39Z</time>
      </trkpt>
      <trkpt lat="48.02465" lon="-3.47952">
        <ele>51</ele>
        <time>2013-06-21T13:17:10Z</time>
      </trkpt>
      <trkpt lat="48.02493" lon="-3.47978">
        <ele>56</ele>
        <time>2013-06-21T13:17:40Z</time>
      </trkpt>
      <trkpt lat="48.02515" lon="-3.47965">
        <ele>56</ele>
        <time>2013-06-21T13:18:10Z</time>
      </trkpt>
      <trkpt lat="48.02534" lon="-3.47926">
        <ele>56</ele>
        <time>2013-06-21T13:18:42Z</time>
      </trkpt>
      <trkpt lat="48.02554" lon="-3.47879">
        <ele>52</ele>
        <time>2013-06-21T13:19:12Z</time>
      </trkpt>
      <trkpt lat="48.02567" lon="-3.47837">
        <ele>52</ele>
        <time>2013-06-21T13:19:42Z</time>
      </trkpt>
      <trkpt lat="48.02588" lon="-3.47802">
        <ele>48</ele>
        <time>2013-06-21T13:20:12Z</time>
      </trkpt>
      <trkpt lat="48.02621" lon="-3.47787">
        <ele>48</ele>
        <time>2013-06-21T13:20:42Z</time>
      </trkpt>
      <trkpt lat="48.02647" lon="-3.47781">
        <ele>48</ele>
        <time>2013-06-21T13:21:13Z</time>
      </trkpt>
      <trkpt lat="48.02673" lon="-3.47773">
        <ele>48</ele>
        <time>2013-06-21T13:21:43Z</time>
      </trkpt>
      <trkpt lat="48.02675" lon="-3.47776">
        <ele>48</ele>
        <time>2013-06-21T13:22:13Z</time>
      </trkpt>
      <trkpt lat="48.02681" lon="-3.47774">
        <ele>48</ele>
        <time>2013-06-21T13:22:44Z</time>
      </trkpt>
      <trkpt lat="48.02713" lon="-3.47766">
        <ele>48</ele>
        <time>2013-06-21T13:23:14Z</time>
      </trkpt>
      <trkpt lat="48.02747" lon="-3.47763">
        <ele>44</ele>
        <time>2013-06-21T13:23:44Z</time>
      </trkpt>
      <trkpt lat="48.02784" lon="-3.47755">
        <ele>44</ele>
        <time>2013-06-21T13:24:15Z</time>
      </trkpt>
      <trkpt lat="48.02811" lon="-3.47706">
        <ele>40</ele>
        <time>2013-06-21T13:24:45Z</time>
      </trkpt>
      <trkpt lat="48.02845" lon="-3.47694">
        <ele>40</ele>
        <time>2013-06-21T13:25:15Z</time>
      </trkpt>
      <trkpt lat="48.02873" lon="-3.47704">
        <ele>40</ele>
        <time>2013-06-21T13:25:45Z</time>
      </trkpt>
      <trkpt lat="48.02902" lon="-3.4773">
        <ele>40</ele>
        <time>2013-06-21T13:26:16Z</time>
      </trkpt>
      <trkpt lat="48.0294" lon="-3.47757">
        <ele>40</ele>
        <time>2013-06-21T13:26:47Z</time>
      </trkpt>
      <trkpt lat="48.02972" lon="-3.47769">
        <ele>40</ele>
        <time>2013-06-21T13:27:16Z</time>
      </trkpt>
      <trkpt lat="48.0301" lon="-3.47776">
        <ele>41</ele>
        <time>2013-06-21T13:27:47Z</time>
      </trkpt>
      <trkpt lat="48.03049" lon="-3.47782">
        <ele>41</ele>
        <time>2013-06-21T13:28:17Z</time>
      </trkpt>
      <trkpt lat="48.03084" lon="-3.47789">
        <ele>41</ele>
        <time>2013-06-21T13:28:47Z</time>
      </trkpt>
      <trkpt lat="48.03119" lon="-3.47792">
        <ele>41</ele>
        <time>2013-06-21T13:29:18Z</time>
      </trkpt>
      <trkpt lat="48.03157" lon="-3.47797">
        <ele>41</ele>
        <time>2013-06-21T13:29:49Z</time>
      </trkpt>
      <trkpt lat="48.03189" lon="-3.47798">
        <ele>41</ele>
        <time>2013-06-21T13:30:18Z</time>
      </trkpt>
      <trkpt lat="48.03201" lon="-3.47771">
        <ele>41</ele>
        <time>2013-06-21T13:30:49Z</time>
      </trkpt>
      <trkpt lat="48.03205" lon="-3.47739">
        <ele>41</ele>
        <time>2013-06-21T13:31:19Z</time>
      </trkpt>
      <trkpt lat="48.0321" lon="-3.47708">
        <ele>41</ele>
        <time>2013-06-21T13:31:50Z</time>
      </trkpt>
      <trkpt lat="48.03218" lon="-3.47704">
        <ele>41</ele>
        <time>2013-06-21T13:32:19Z</time>
      </trkpt>
      <trkpt lat="48.03228" lon="-3.47696">
        <ele>41</ele>
        <time>2013-06-21T13:32:50Z</time>
      </trkpt>
      <trkpt lat="48.03244" lon="-3.47685">
        <ele>42</ele>
        <time>2013-06-21T13:33:20Z</time>
      </trkpt>
      <trkpt lat="48.03257" lon="-3.47671">
        <ele>42</ele>
        <time>2013-06-21T13:33:51Z</time>
      </trkpt>
      <trkpt lat="48.03273" lon="-3.47652">
        <ele>42</ele>
        <time>2013-06-21T13:34:21Z</time>
      </trkpt>
      <trkpt lat="48.03288" lon="-3.47635">
        <ele>42</ele>
        <time>2013-06-21T13:34:51Z</time>
      </trkpt>
      <trkpt lat="48.03325" lon="-3.4763">
        <ele>43</ele>
        <time>2013-06-21T13:35:21Z</time>
      </trkpt>
      <trkpt lat="48.03354" lon="-3.47645">
        <ele>43</ele>
        <time>2013-06-21T13:35:52Z</time>
      </trkpt>
      <trkpt lat="48.03387" lon="-3.47659">
        <ele>43</ele>
        <time>2013-06-21T13:36:22Z</time>
      </trkpt>
      <trkpt lat="48.0342" lon="-3.47671">
        <ele>43</ele>
        <time>2013-06-21T13:36:53Z</time>
      </trkpt>
      <trkpt lat="48.03453" lon="-3.47679">
        <ele>43</ele>
        <time>2013-06-21T13:37:24Z</time>
      </trkpt>
      <trkpt lat="48.0349" lon="-3.47679">
        <ele>43</ele>
        <time>2013-06-21T13:37:54Z</time>
      </trkpt>
      <trkpt lat="48.0353" lon="-3.47673">
        <ele>43</ele>
        <time>2013-06-21T13:38:24Z</time>
      </trkpt>
      <trkpt lat="48.03568" lon="-3.47661">
        <ele>47</ele>
        <time>2013-06-21T13:38:55Z</time>
      </trkpt>
      <trkpt lat="48.03599" lon="-3.47661">
        <ele>47</ele>
        <time>2013-06-21T13:39:26Z</time>
      </trkpt>
      <trkpt lat="48.03622" lon="-3.47655">
        <ele>47</ele>
        <time>2013-06-21T13:39:56Z</time>
      </trkpt>
      <trkpt lat="48.03658" lon="-3.47661">
        <ele>47</ele>
        <time>2013-06-21T13:40:26Z</time>
      </trkpt>
      <trkpt lat="48.03692" lon="-3.47673">
        <ele>47</ele>
        <time>2013-06-21T13:40:56Z</time>
      </trkpt>
      <trkpt lat="48.0373" lon="-3.47656">
        <ele>47</ele>
        <time>2013-06-21T13:41:27Z</time>
      </trkpt>
      <trkpt lat="48.03763" lon="-3.47647">
        <ele>47</ele>
        <time>2013-06-21T13:41:57Z</time>
      </trkpt>
      <trkpt lat="48.03797" lon="-3.47654">
        <ele>51</ele>
        <time>2013-06-21T13:42:28Z</time>
      </trkpt>
      <trkpt lat="48.03828" lon="-3.47668">
        <ele>51</ele>
        <time>2013-06-21T13:42:58Z</time>
      </trkpt>
      <trkpt lat="48.0386" lon="-3.47688">
        <ele>51</ele>
        <time>2013-06-21T13:43:28Z</time>
      </trkpt>
      <trkpt lat="48.03886" lon="-3.47709">
        <ele>51</ele>
        <time>2013-06-21T13:43:59Z</time>
      </trkpt>
      <trkpt lat="48.03905" lon="-3.47713">
        <ele>51</ele>
        <time>2013-06-21T13:44:28Z</time>
      </trkpt>
      <trkpt lat="48.039" lon="-3.47736">
        <ele>54</ele>
        <time>2013-06-21T13:44:59Z</time>
      </trkpt>
      <trkpt lat="48.03894" lon="-3.47748">
        <ele>54</ele>
        <time>2013-06-21T13:45:29Z</time>
      </trkpt>
      <trkpt lat="48.03892" lon="-3.47781">
        <ele>58</ele>
        <time>2013-06-21T13:46:00Z</time>
      </trkpt>
      <trkpt lat="48.03882" lon="-3.47791">
        <ele>62</ele>
        <time>2013-06-21T13:46:30Z</time>
      </trkpt>
      <trkpt lat="48.03886" lon="-3.47808">
        <ele>66</ele>
        <time>2013-06-21T13:47:01Z</time>
      </trkpt>
      <trkpt lat="48.03904" lon="-3.47815">
        <ele>70</ele>
        <time>2013-06-21T13:47:32Z</time>
      </trkpt>
      <trkpt lat="48.03914" lon="-3.47823">
        <ele>74</ele>
        <time>2013-06-21T13:48:01Z</time>
      </trkpt>
      <trkpt lat="48.03923" lon="-3.47828">
        <ele>78</ele>
        <time>2013-06-21T13:48:31Z</time>
      </trkpt>
      <trkpt lat="48.03934" lon="-3.47836">
        <ele>82</ele>
        <time>2013-06-21T13:49:02Z</time>
      </trkpt>
      <trkpt lat="48.0395" lon="-3.47841">
        <ele>88</ele>
        <time>2013-06-21T13:49:32Z</time>
      </trkpt>
      <trkpt lat="48.03957" lon="-3.47836">
        <ele>88</ele>
        <time>2013-06-21T13:50:02Z</time>
      </trkpt>
      <trkpt lat="48.03973" lon="-3.47849">
        <ele>92</ele>
        <time>2013-06-21T13:50:32Z</time>
      </trkpt>
      <trkpt lat="48.03979" lon="-3.4785">
        <ele>92</ele>
        <time>2013-06-21T13:51:02Z</time>
      </trkpt>
      <trkpt lat="48.03989" lon="-3.47857">
        <ele>96</ele>
        <time>2013-06-21T13:51:33Z</time>
      </trkpt>
      <trkpt lat="48.03999" lon="-3.47858">
        <ele>101</ele>
        <time>2013-06-21T13:52:03Z</time>
      </trkpt>
      <trkpt lat="48.04015" lon="-3.47859">
        <ele>101</ele>
        <time>2013-06-21T13:52:33Z</time>
      </trkpt>
      <trkpt lat="48.0403" lon="-3.4787">
        <ele>108</ele>
        <time>2013-06-21T13:53:03Z</time>
      </trkpt>
      <trkpt lat="48.04042" lon="-3.47877">
        <ele>113</ele>
        <time>2013-06-21T13:53:33Z</time>
      </trkpt>
      <trkpt lat="48.04056" lon="-3.47879">
        <ele>117</ele>
        <time>2013-06-21T13:54:04Z</time>
      </trkpt>
      <trkpt lat="48.04064" lon="-3.47885">
        <ele>117</ele>
        <time>2013-06-21T13:54:34Z</time>
      </trkpt>
      <trkpt lat="48.04077" lon="-3.4789">
        <ele>123</ele>
        <time>2013-06-21T13:55:04Z</time>
      </trkpt>
      <trkpt lat="48.04088" lon="-3.47895">
        <ele>123</ele>
        <time>2013-06-21T13:55:34Z</time>
      </trkpt>
      <trkpt lat="48.04096" lon="-3.47904">
        <ele>128</ele>
        <time>2013-06-21T13:56:05Z</time>
      </trkpt>
      <trkpt lat="48.04103" lon="-3.4791">
        <ele>128</ele>
        <time>2013-06-21T13:56:34Z</time>
      </trkpt>
      <trkpt lat="48.04108" lon="-3.47911">
        <ele>132</ele>
        <time>2013-06-21T13:57:05Z</time>
      </trkpt>
      <trkpt lat="48.04122" lon="-3.4792">
        <ele>132</ele>
        <time>2013-06-21T13:57:35Z</time>
      </trkpt>
      <trkpt lat="48.04132" lon="-3.47927">
        <ele>137</ele>
        <time>2013-06-21T13:58:05Z</time>
      </trkpt>
      <trkpt lat="48.0415" lon="-3.47945">
        <ele>141</ele>
        <time>2013-06-21T13:58:36Z</time>
      </trkpt>
      <trkpt lat="48.04158" lon="-3.47958">
        <ele>145</ele>
        <time>2013-06-21T13:59:05Z</time>
      </trkpt>
      <trkpt lat="48.04176" lon="-3.47967">
        <ele>145</ele>
        <time>2013-06-21T13:59:36Z</time>
      </trkpt>
      <trkpt lat="48.04197" lon="-3.47976">
        <ele>149</ele>
        <time>2013-06-21T14:00:07Z</time>
      </trkpt>
      <trkpt lat="48.042" lon="-3.47979">
        <ele>149</ele>
        <time>2013-06-21T14:00:36Z</time>
      </trkpt>
      <trkpt lat="48.04205" lon="-3.47975">
        <ele>149</ele>
        <time>2013-06-21T14:01:06Z</time>
      </trkpt>
      <trkpt lat="48.04203" lon="-3.47976">
        <ele>149</ele>
        <time>2013-06-21T14:01:37Z</time>
      </trkpt>
      <trkpt lat="48.042" lon="-3.47995">
        <ele>149</ele>
        <time>2013-06-21T14:02:07Z</time>
      </trkpt>
      <trkpt lat="48.0421" lon="-3.48034">
        <ele>149</ele>
        <time>2013-06-21T14:02:37Z</time>
      </trkpt>
      <trkpt lat="48.04227" lon="-3.48062">
        <ele>153</ele>
        <time>2013-06-21T14:03:07Z</time>
      </trkpt>
      <trkpt lat="48.04224" lon="-3.48071">
        <ele>153</ele>
        <time>2013-06-21T14:03:37Z</time>
      </trkpt>
      <trkpt lat="48.04223" lon="-3.48073">
        <ele>153</ele>
        <time>2013-06-21T14:04:07Z</time>
      </trkpt>
      <trkpt lat="48.04225" lon="-3.48074">
        <ele>153</ele>
        <time>2013-06-21T14:04:38Z</time>
      </trkpt>
    </trkseg>
  </trk>
</gpx>